createdAt,value
2022-11-15T00:00:55.927Z,76.87
2022-11-15T00:01:55.965Z,77.07
2022-11-15T00:02:55.890Z,76.73
2022-11-15T00:03:55.890Z,76.93
2022-11-15T00:04:55.882Z,76.66
2022-11-15T00:05:55.887Z,76.93
2022-11-15T00:06:55.922Z,76.42
2022-11-15T00:07:56.424Z,76.66
2022-11-15T00:08:56.855Z,76.66
2022-11-15T00:09:55.839Z,76.46
2022-11-15T00:10:55.834Z,76.87
2022-11-15T00:11:55.808Z,77.07
2022-11-15T00:12:55.841Z,76.97
2022-11-15T00:13:55.861Z,77.07
2022-11-15T00:14:55.781Z,77.17
2022-11-15T00:15:55.761Z,76.66
2022-11-15T00:16:55.762Z,76.66
2022-11-15T00:17:55.752Z,76.87
2022-11-15T00:18:55.760Z,76.76
2022-11-15T00:19:55.740Z,76.25
2022-11-15T00:20:55.715Z,76.53
2022-11-15T00:21:55.744Z,76.42
2022-11-15T00:22:55.697Z,76.32
2022-11-15T00:23:55.686Z,76.22
2022-11-15T00:24:55.694Z,76.32
2022-11-15T00:25:55.664Z,76.62
2022-11-15T00:26:55.653Z,76.93
2022-11-15T00:27:55.642Z,76.12
2022-11-15T00:28:55.643Z,76.56
2022-11-15T00:29:55.636Z,76.42
2022-11-15T00:30:55.619Z,76.35
2022-11-15T00:31:55.596Z,76.87
2022-11-15T00:32:55.619Z,76.66
2022-11-15T00:33:55.576Z,76.66
2022-11-15T00:34:55.581Z,77.27
2022-11-15T00:35:55.566Z,77.58
2022-11-15T00:36:55.611Z,77.98
2022-11-15T00:37:55.542Z,77.89
2022-11-15T00:38:55.539Z,77.72
2022-11-15T00:39:55.530Z,78.23
2022-11-15T00:40:55.585Z,78.33
2022-11-15T00:41:55.527Z,78.12
2022-11-15T00:42:55.498Z,78.43
2022-11-15T00:43:55.486Z,77.92
2022-11-15T00:44:55.480Z,78.33
2022-11-15T00:45:55.471Z,78.64
2022-11-15T00:46:55.466Z,78.12
2022-11-15T00:47:55.444Z,78.12
2022-11-15T00:48:55.443Z,78.02
2022-11-15T00:49:55.453Z,77.82
2022-11-15T00:50:55.419Z,77.82
2022-11-15T00:51:55.421Z,77.51
2022-11-15T00:52:55.426Z,77.72
2022-11-15T00:53:55.385Z,77.51
2022-11-15T00:54:55.374Z,78.33
2022-11-15T00:55:55.370Z,78.33
2022-11-15T00:56:55.414Z,78.33
2022-11-15T00:57:55.365Z,78.43
2022-11-15T00:58:55.347Z,77.92
2022-11-15T00:59:55.331Z,78.23
2022-11-15T01:00:55.418Z,78.64
2022-11-15T01:01:56.314Z,78.37
2022-11-15T01:02:55.302Z,78.37
2022-11-15T01:03:59.987Z,78.37
2022-11-15T01:04:57.285Z,78.27
2022-11-15T01:05:55.293Z,78.67
2022-11-15T01:06:55.287Z,78.06
2022-11-15T01:07:55.261Z,78.47
2022-11-15T01:08:55.237Z,78.57
2022-11-15T01:09:55.256Z,79.18
2022-11-15T01:10:55.220Z,79.43
2022-11-15T01:11:55.211Z,79.32
2022-11-15T01:12:55.199Z,79.43
2022-11-15T01:13:55.206Z,79.32
2022-11-15T01:14:55.176Z,79.52
2022-11-15T01:15:55.172Z,79.46
2022-11-15T01:16:55.180Z,79.63
2022-11-15T01:17:55.146Z,79.57
2022-11-15T01:18:55.153Z,80.28
2022-11-15T01:19:55.137Z,80.48
2022-11-15T01:20:55.121Z,80.18
2022-11-15T01:21:55.118Z,80.18
2022-11-15T01:22:55.102Z,80.58
2022-11-15T01:23:55.123Z,79.97
2022-11-15T01:24:55.107Z,80.38
2022-11-15T01:25:55.064Z,80.28
2022-11-15T01:26:55.121Z,80.07
2022-11-15T01:27:55.082Z,79.66
2022-11-15T01:28:55.038Z,79.57
2022-11-15T01:29:55.026Z,80.21
2022-11-15T01:30:55.035Z,81.13
2022-11-15T01:31:55.015Z,81.79
2022-11-15T01:32:55.001Z,82.40
2022-11-15T01:33:55.027Z,81.88
2022-11-15T01:34:54.994Z,82.15
2022-11-15T01:35:54.999Z,81.93
2022-11-15T01:36:54.960Z,82.54
2022-11-15T01:37:54.948Z,82.40
2022-11-15T01:38:54.957Z,82.09
2022-11-15T01:39:54.939Z,82.34
2022-11-15T01:40:54.923Z,82.95
2022-11-15T01:41:54.917Z,83.56
2022-11-15T01:42:54.923Z,83.66
2022-11-15T01:43:54.894Z,82.54
2022-11-15T01:44:54.889Z,82.75
2022-11-15T01:45:54.908Z,82.54
2022-11-15T01:46:54.918Z,83.46
2022-11-15T01:47:54.876Z,83.05
2022-11-15T01:48:54.851Z,82.95
2022-11-15T01:49:54.839Z,82.84
2022-11-15T01:50:54.938Z,82.64
2022-11-15T01:51:54.844Z,82.75
2022-11-15T01:52:54.834Z,82.95
2022-11-15T01:53:54.802Z,82.95
2022-11-15T01:54:54.792Z,83.56
2022-11-15T01:55:54.781Z,82.64
2022-11-15T01:56:54.820Z,82.95
2022-11-15T01:57:54.825Z,82.54
2022-11-15T01:58:54.747Z,82.75
2022-11-15T01:59:55.756Z,82.95
2022-11-15T02:00:54.769Z,82.98
2022-11-15T02:01:54.814Z,82.64
2022-11-15T02:02:54.722Z,82.54
2022-11-15T02:03:54.681Z,82.57
2022-11-15T02:04:54.697Z,82.95
2022-11-15T02:05:54.689Z,82.84
2022-11-15T02:06:54.735Z,82.98
2022-11-15T02:07:54.654Z,82.68
2022-11-15T02:08:54.710Z,82.84
2022-11-15T02:09:54.679Z,82.95
2022-11-15T02:10:54.636Z,82.75
2022-11-15T02:11:54.617Z,82.75
2022-11-15T02:12:54.610Z,82.13
2022-11-15T02:13:54.626Z,82.54
2022-11-15T02:14:54.604Z,82.64
2022-11-15T02:15:56.937Z,82.84
2022-11-15T02:16:54.630Z,82.13
2022-11-15T02:17:54.600Z,82.84
2022-11-15T02:18:54.571Z,83.05
2022-11-15T02:19:54.556Z,82.34
2022-11-15T02:20:54.540Z,83.09
2022-11-15T02:21:54.533Z,82.89
2022-11-15T02:22:54.535Z,82.89
2022-11-15T02:23:54.514Z,82.89
2022-11-15T02:24:54.494Z,83.50
2022-11-15T02:25:54.487Z,84.15
2022-11-15T02:26:54.471Z,83.84
2022-11-15T02:27:54.480Z,84.01
2022-11-15T02:28:54.489Z,83.50
2022-11-15T02:29:54.449Z,83.70
2022-11-15T02:30:54.468Z,83.29
2022-11-15T02:31:54.425Z,82.98
2022-11-15T02:32:54.435Z,83.09
2022-11-15T02:33:54.413Z,83.05
2022-11-15T02:34:54.427Z,82.98
2022-11-15T02:35:54.387Z,83.29
2022-11-15T02:36:54.383Z,82.48
2022-11-15T02:37:54.374Z,83.09
2022-11-15T02:38:54.396Z,83.09
2022-11-15T02:39:54.379Z,82.78
2022-11-15T02:40:54.346Z,83.09
2022-11-15T02:41:54.339Z,83.09
2022-11-15T02:42:54.325Z,83.09
2022-11-15T02:43:54.343Z,82.68
2022-11-15T02:44:54.306Z,83.19
2022-11-15T02:45:54.318Z,83.39
2022-11-15T02:46:54.282Z,82.98
2022-11-15T02:47:54.286Z,83.56
2022-11-15T02:48:54.269Z,82.75
2022-11-15T02:49:54.283Z,82.89
2022-11-15T02:50:54.248Z,82.84
2022-11-15T02:51:54.265Z,82.75
2022-11-15T02:53:26.187Z,82.54
2022-11-15T02:53:54.352Z,82.64
2022-11-15T02:54:54.255Z,82.75
2022-11-15T02:55:54.219Z,83.05
2022-11-15T02:56:54.213Z,82.84
2022-11-15T02:57:54.201Z,82.34
2022-11-15T02:58:54.178Z,82.03
2022-11-15T02:59:54.196Z,82.23
2022-11-15T03:00:54.204Z,82.64
2022-11-15T03:01:54.169Z,82.54
2022-11-15T03:02:54.140Z,82.64
2022-11-15T03:03:54.141Z,82.75
2022-11-15T03:04:54.115Z,82.43
2022-11-15T03:05:54.128Z,82.57
2022-11-15T03:06:54.263Z,82.78
2022-11-15T03:07:59.403Z,83.09
2022-11-15T03:08:55.086Z,82.89
2022-11-15T03:09:54.066Z,82.57
2022-11-15T03:10:54.116Z,82.78
2022-11-15T03:11:54.073Z,82.89
2022-11-15T03:12:54.057Z,82.54
2022-11-15T03:13:54.036Z,82.43
2022-11-15T03:14:54.041Z,82.54
2022-11-15T03:15:54.080Z,82.64
2022-11-15T03:16:54.025Z,82.54
2022-11-15T03:17:53.993Z,82.75
2022-11-15T03:18:54.018Z,82.54
2022-11-15T03:19:53.984Z,82.89
2022-11-15T03:20:54.057Z,82.64
2022-11-15T03:21:53.961Z,82.57
2022-11-15T03:22:53.960Z,82.95
2022-11-15T03:23:53.957Z,82.68
2022-11-15T03:24:54.040Z,82.89
2022-11-15T03:25:53.930Z,82.78
2022-11-15T03:26:53.933Z,82.89
2022-11-15T03:27:53.911Z,83.70
2022-11-15T03:28:53.890Z,82.68
2022-11-15T03:29:53.875Z,82.98
2022-11-15T03:30:54.017Z,82.57
2022-11-15T03:31:53.848Z,82.71
2022-11-15T03:32:53.891Z,82.98
2022-11-15T03:33:53.885Z,83.09
2022-11-15T03:34:54.000Z,83.60
2022-11-15T03:35:53.824Z,83.29
2022-11-15T03:36:53.840Z,83.09
2022-11-15T03:37:53.883Z,82.27
2022-11-15T03:38:53.794Z,82.57
2022-11-15T03:39:53.881Z,82.78
2022-11-15T03:40:53.795Z,82.78
2022-11-15T03:41:53.779Z,82.62
2022-11-15T03:42:53.769Z,82.82
2022-11-15T03:43:53.764Z,82.62
2022-11-15T03:44:53.787Z,82.10
2022-11-15T03:45:53.757Z,83.13
2022-11-15T03:46:53.780Z,82.71
2022-11-15T03:47:53.793Z,82.71
2022-11-15T03:48:53.759Z,83.33
2022-11-15T03:49:53.758Z,83.23
2022-11-15T03:50:53.708Z,84.05
2022-11-15T03:51:53.678Z,84.80
2022-11-15T03:52:53.678Z,84.77
2022-11-15T03:53:53.691Z,84.25
2022-11-15T03:54:53.670Z,83.95
2022-11-15T03:55:53.668Z,84.25
2022-11-15T03:56:53.703Z,84.01
2022-11-15T03:57:53.666Z,83.64
2022-11-15T03:58:53.616Z,84.36
2022-11-15T03:59:53.648Z,84.15
2022-11-15T04:00:53.661Z,83.84
2022-11-15T04:01:53.590Z,84.15
2022-11-15T04:02:53.578Z,84.46
2022-11-15T04:03:53.576Z,82.82
2022-11-15T04:04:53.578Z,83.23
2022-11-15T04:05:53.542Z,83.33
2022-11-15T04:06:53.610Z,83.47
2022-11-15T04:07:53.537Z,83.82
2022-11-15T04:08:53.618Z,84.84
2022-11-15T04:09:53.515Z,85.36
2022-11-15T04:10:53.497Z,85.46
2022-11-15T04:11:53.483Z,84.95
2022-11-15T04:12:53.461Z,85.05
2022-11-15T04:13:53.505Z,85.77
2022-11-15T04:14:53.483Z,85.46
2022-11-15T04:15:53.457Z,85.56
2022-11-15T04:16:53.539Z,85.66
2022-11-15T04:17:53.433Z,86.07
2022-11-15T04:18:53.525Z,85.77
2022-11-15T04:19:53.412Z,85.97
2022-11-15T04:20:53.422Z,85.46
2022-11-15T04:21:53.405Z,85.31
2022-11-15T04:22:53.377Z,84.44
2022-11-15T04:23:53.424Z,85.11
2022-11-15T04:24:53.372Z,84.84
2022-11-15T04:25:53.372Z,85.05
2022-11-15T04:26:53.351Z,85.66
2022-11-15T04:27:53.333Z,85.11
2022-11-15T04:28:53.360Z,85.63
2022-11-15T04:29:53.323Z,85.56
2022-11-15T04:30:53.309Z,85.63
2022-11-15T04:31:53.296Z,85.42
2022-11-15T04:32:53.285Z,85.63
2022-11-15T04:33:53.291Z,85.31
2022-11-15T04:34:53.256Z,84.80
2022-11-15T04:35:53.243Z,84.09
2022-11-15T04:36:53.235Z,84.09
2022-11-15T04:37:53.252Z,84.19
2022-11-15T04:38:53.300Z,84.09
2022-11-15T04:39:53.243Z,84.03
2022-11-15T04:40:53.293Z,83.88
2022-11-15T04:41:53.211Z,84.64
2022-11-15T04:42:53.204Z,84.84
2022-11-15T04:43:53.193Z,85.56
2022-11-15T04:44:53.161Z,86.01
2022-11-15T04:45:53.158Z,86.52
2022-11-15T04:46:53.149Z,87.24
2022-11-15T04:47:53.156Z,86.83
2022-11-15T04:48:58.231Z,86.63
2022-11-15T04:49:55.117Z,85.87
2022-11-15T04:50:53.099Z,86.07
2022-11-15T04:51:53.114Z,85.77
2022-11-15T04:52:53.093Z,85.87
2022-11-15T04:53:53.109Z,85.46
2022-11-15T04:54:53.077Z,84.91
2022-11-15T04:55:53.071Z,85.25
2022-11-15T04:56:53.055Z,85.11
2022-11-15T04:57:53.243Z,84.03
2022-11-15T04:58:53.027Z,83.98
2022-11-15T04:59:53.030Z,84.33
2022-11-15T05:00:53.118Z,84.03
2022-11-15T05:01:53.005Z,84.23
2022-11-15T05:02:52.994Z,84.33
2022-11-15T05:03:53.019Z,84.95
2022-11-15T05:04:52.971Z,85.56
2022-11-15T05:05:53.059Z,85.91
2022-11-15T05:06:53.098Z,85.80
2022-11-15T05:07:53.948Z,85.87
2022-11-15T05:08:52.941Z,85.36
2022-11-15T05:09:52.949Z,84.78
2022-11-15T05:10:52.925Z,86.01
2022-11-15T05:11:52.928Z,85.91
2022-11-15T05:12:52.931Z,85.80
2022-11-15T05:13:52.883Z,85.39
2022-11-15T05:14:52.963Z,85.39
2022-11-15T05:15:52.882Z,85.80
2022-11-15T05:16:52.879Z,86.07
2022-11-15T05:17:52.898Z,86.01
2022-11-15T05:18:52.844Z,85.19
2022-11-15T05:19:52.830Z,84.17
2022-11-15T05:20:52.818Z,84.00
2022-11-15T05:21:52.815Z,84.55
2022-11-15T05:22:52.857Z,85.38
2022-11-15T05:23:52.810Z,85.38
2022-11-15T05:24:52.772Z,85.06
2022-11-15T05:25:52.807Z,86.03
2022-11-15T05:26:52.754Z,86.13
2022-11-15T05:27:52.750Z,86.13
2022-11-15T05:28:52.770Z,85.93
2022-11-15T05:29:52.739Z,86.58
2022-11-15T05:30:52.714Z,87.05
2022-11-15T05:31:52.830Z,87.16
2022-11-15T05:32:52.701Z,87.05
2022-11-15T05:33:52.708Z,87.16
2022-11-15T05:34:52.689Z,87.10
2022-11-15T05:35:52.647Z,87.05
2022-11-15T05:36:52.654Z,86.85
2022-11-15T05:37:52.675Z,87.67
2022-11-15T05:38:52.657Z,87.71
2022-11-15T05:39:52.653Z,87.05
2022-11-15T05:40:52.634Z,87.40
2022-11-15T05:41:52.660Z,87.40
2022-11-15T05:42:52.606Z,88.23
2022-11-15T05:43:52.587Z,88.12
2022-11-15T05:44:52.566Z,87.82
2022-11-15T05:45:52.635Z,88.12
2022-11-15T05:46:52.574Z,88.02
2022-11-15T05:47:52.552Z,88.33
2022-11-15T05:48:52.579Z,87.61
2022-11-15T05:49:52.528Z,87.10
2022-11-15T05:50:52.514Z,87.24
2022-11-15T05:51:52.510Z,87.45
2022-11-15T05:52:52.503Z,87.65
2022-11-15T05:53:52.582Z,87.55
2022-11-15T05:54:53.522Z,86.93
2022-11-15T05:55:52.509Z,86.99
2022-11-15T05:56:52.456Z,87.13
2022-11-15T05:57:52.438Z,86.93
2022-11-15T05:58:56.765Z,87.13
2022-11-15T05:59:53.434Z,87.04
2022-11-15T06:00:52.491Z,87.34
2022-11-15T06:01:52.466Z,87.55
2022-11-15T06:02:52.430Z,87.13
2022-11-15T06:03:52.417Z,86.83
2022-11-15T06:04:52.365Z,87.45
2022-11-15T06:05:52.357Z,88.06
2022-11-15T06:06:52.455Z,88.27
2022-11-15T06:07:52.348Z,88.47
2022-11-15T06:08:52.375Z,88.37
2022-11-15T06:09:52.478Z,88.02
2022-11-15T06:10:52.305Z,88.27
2022-11-15T06:11:52.295Z,88.17
2022-11-15T06:12:52.299Z,88.12
2022-11-15T06:13:52.288Z,87.96
2022-11-15T06:14:52.285Z,87.30
2022-11-15T06:15:52.289Z,87.45
2022-11-15T06:16:52.253Z,86.89
2022-11-15T06:17:52.248Z,87.34
2022-11-15T06:18:52.297Z,87.55
2022-11-15T06:19:52.243Z,87.65
2022-11-15T06:20:52.245Z,87.71
2022-11-15T06:21:52.285Z,87.85
2022-11-15T06:22:52.195Z,88.23
2022-11-15T06:23:52.194Z,87.82
2022-11-15T06:24:52.176Z,87.40
2022-11-15T06:25:52.182Z,88.12
2022-11-15T06:26:52.176Z,88.12
2022-11-15T06:27:52.153Z,88.12
2022-11-15T06:28:52.181Z,87.51
2022-11-15T06:29:52.118Z,87.20
2022-11-15T06:30:53.404Z,87.30
2022-11-15T06:31:53.153Z,86.89
2022-11-15T06:32:52.099Z,87.20
2022-11-15T06:33:52.089Z,87.20
2022-11-15T06:34:52.073Z,87.20
2022-11-15T06:35:52.075Z,87.10
2022-11-15T06:36:52.132Z,86.89
2022-11-15T06:37:52.046Z,87.10
2022-11-15T06:38:52.063Z,86.89
2022-11-15T06:39:52.037Z,87.10
2022-11-15T06:40:52.008Z,87.40
2022-11-15T06:41:52.008Z,87.51
2022-11-15T06:42:52.012Z,86.99
2022-11-15T06:43:51.994Z,87.24
2022-11-15T06:44:52.000Z,87.49
2022-11-15T06:45:51.968Z,87.85
2022-11-15T06:46:51.960Z,87.65
2022-11-15T06:47:51.950Z,88.27
2022-11-15T06:48:51.957Z,87.75
2022-11-15T06:49:51.921Z,87.30
2022-11-15T06:50:51.934Z,87.65
2022-11-15T06:51:51.929Z,87.51
2022-11-15T06:52:51.896Z,87.51
2022-11-15T06:53:52.013Z,87.10
2022-11-15T06:54:51.873Z,87.16
2022-11-15T06:55:55.261Z,87.16
2022-11-15T06:56:52.858Z,87.02
2022-11-15T06:57:51.848Z,87.22
2022-11-15T06:58:51.853Z,87.32
2022-11-15T06:59:51.856Z,86.87
2022-11-15T07:00:51.856Z,85.60
2022-11-15T07:01:51.829Z,84.03
2022-11-15T07:02:51.818Z,83.37
2022-11-15T07:03:51.783Z,82.71
2022-11-15T07:04:51.775Z,81.18
2022-11-15T07:05:51.771Z,80.63
2022-11-15T07:06:51.863Z,80.08
2022-11-15T07:07:51.755Z,78.75
2022-11-15T07:08:51.769Z,78.52
2022-11-15T07:09:51.748Z,78.11
2022-11-15T07:10:51.723Z,77.59
2022-11-15T07:11:51.723Z,77.76
2022-11-15T07:12:51.706Z,78.13
2022-11-15T07:13:51.718Z,77.38
2022-11-15T07:14:51.691Z,76.87
2022-11-15T07:15:51.712Z,76.97
2022-11-15T07:16:51.663Z,76.73
2022-11-15T07:17:51.656Z,76.93
2022-11-15T07:18:51.659Z,76.59
2022-11-15T07:19:51.643Z,75.23
2022-11-15T07:20:51.633Z,74.45
2022-11-15T07:21:51.624Z,73.54
2022-11-15T07:22:51.607Z,72.89
2022-11-15T07:23:51.628Z,72.21
2022-11-15T07:24:51.579Z,71.26
2022-11-15T07:25:51.595Z,69.64
2022-11-15T07:26:51.617Z,68.72
2022-11-15T07:27:51.566Z,68.65
2022-11-15T07:28:51.542Z,70.24
2022-11-15T07:29:51.553Z,71.33
2022-11-15T07:30:51.530Z,72.28
2022-11-15T07:31:51.535Z,72.89
2022-11-15T07:32:51.556Z,72.82
2022-11-15T07:33:51.513Z,71.16
2022-11-15T07:34:51.526Z,70.21
2022-11-15T07:35:51.481Z,69.87
2022-11-15T07:36:51.479Z,69.84
2022-11-15T07:37:51.485Z,68.49
2022-11-15T07:38:51.445Z,68.82
2022-11-15T07:39:51.456Z,69.13
2022-11-15T07:40:51.448Z,69.70
2022-11-15T07:41:51.439Z,71.06
2022-11-15T07:42:51.425Z,71.33
2022-11-15T07:43:51.401Z,72.08
2022-11-15T07:44:51.424Z,72.82
2022-11-15T07:45:56.004Z,72.55
2022-11-15T07:46:53.374Z,73.81
2022-11-15T07:47:51.466Z,75.13
2022-11-15T07:48:51.351Z,75.37
2022-11-15T07:49:51.367Z,76.50
2022-11-15T07:50:51.332Z,76.40
2022-11-15T07:51:51.323Z,76.43
2022-11-15T07:52:51.333Z,76.84
2022-11-15T07:53:51.329Z,76.09
2022-11-15T07:54:51.342Z,76.26
2022-11-15T07:55:51.295Z,75.07
2022-11-15T07:56:51.283Z,75.24
2022-11-15T07:57:51.281Z,75.24
2022-11-15T07:58:51.278Z,74.63
2022-11-15T07:59:51.254Z,74.38
2022-11-15T08:00:51.235Z,74.18
2022-11-15T08:01:51.392Z,75.10
2022-11-15T08:02:51.405Z,74.49
2022-11-15T08:03:51.237Z,73.88
2022-11-15T08:04:51.217Z,74.86
2022-11-15T08:05:51.192Z,73.60
2022-11-15T08:06:51.246Z,72.82
2022-11-15T08:07:52.801Z,72.28
2022-11-15T08:08:52.214Z,71.40
2022-11-15T08:09:51.175Z,70.45
2022-11-15T08:10:51.144Z,69.87
2022-11-15T08:11:51.139Z,68.92
2022-11-15T08:12:51.242Z,68.99
2022-11-15T08:13:51.160Z,68.28
2022-11-15T08:14:51.165Z,67.88
2022-11-15T08:15:54.872Z,68.92
2022-11-15T08:16:52.110Z,68.72
2022-11-15T08:17:51.086Z,69.16
2022-11-15T08:18:51.087Z,69.87
2022-11-15T08:19:51.062Z,70.14
2022-11-15T08:20:51.057Z,69.84
2022-11-15T08:21:51.099Z,70.38
2022-11-15T08:22:51.024Z,70.51
2022-11-15T08:23:51.032Z,70.51
2022-11-15T08:24:51.056Z,71.26
2022-11-15T08:25:51.014Z,71.70
2022-11-15T08:26:51.042Z,71.56
2022-11-15T08:27:51.018Z,71.84
2022-11-15T08:28:50.988Z,71.06
2022-11-15T08:29:51.817Z,70.21
2022-11-15T08:30:51.012Z,69.57
2022-11-15T08:31:50.948Z,68.45
2022-11-15T08:32:50.931Z,68.42
2022-11-15T08:33:50.917Z,68.08
2022-11-15T08:34:50.970Z,67.07
2022-11-15T08:35:50.924Z,67.68
2022-11-15T08:36:50.901Z,67.61
2022-11-15T08:37:50.879Z,69.17
2022-11-15T08:38:50.941Z,69.57
2022-11-15T08:39:50.851Z,68.66
2022-11-15T08:40:50.948Z,69.06
2022-11-15T08:41:50.854Z,69.78
2022-11-15T08:42:50.842Z,69.67
2022-11-15T08:43:50.842Z,69.06
2022-11-15T08:44:50.900Z,68.83
2022-11-15T08:45:50.853Z,68.59
2022-11-15T08:46:50.792Z,67.38
2022-11-15T08:47:54.120Z,67.65
2022-11-15T08:48:51.788Z,67.24
2022-11-15T08:49:50.760Z,67.00
2022-11-15T08:50:50.750Z,66.09
2022-11-15T08:51:50.761Z,65.99
2022-11-15T08:52:51.749Z,65.08
2022-11-15T08:54:22.611Z,65.36
2022-11-15T08:54:50.730Z,65.86
2022-11-15T08:55:50.706Z,64.04
2022-11-15T08:56:50.744Z,64.31
2022-11-15T08:57:50.734Z,65.02
2022-11-15T08:58:50.680Z,63.81
2022-11-15T08:59:50.654Z,64.64
2022-11-15T09:00:50.675Z,65.05
2022-11-15T09:01:50.676Z,65.86
2022-11-15T09:02:50.623Z,65.45
2022-11-15T09:03:50.632Z,65.79
2022-11-15T09:04:50.622Z,66.09
2022-11-15T09:05:50.988Z,66.30
2022-11-15T09:06:50.644Z,66.09
2022-11-15T09:07:50.581Z,65.36
2022-11-15T09:08:50.595Z,65.48
2022-11-15T09:09:50.558Z,65.36
2022-11-15T09:10:50.576Z,65.39
2022-11-15T09:11:50.575Z,66.06
2022-11-15T09:12:50.513Z,65.76
2022-11-15T09:13:50.543Z,63.73
2022-11-15T09:14:50.501Z,64.31
2022-11-15T09:15:50.506Z,65.02
2022-11-15T09:16:50.485Z,65.22
2022-11-15T09:17:50.480Z,64.61
2022-11-15T09:18:50.501Z,64.21
2022-11-15T09:19:50.476Z,64.72
2022-11-15T09:20:50.455Z,63.83
2022-11-15T09:21:50.436Z,64.24
2022-11-15T09:22:50.458Z,64.01
2022-11-15T09:23:50.431Z,64.01
2022-11-15T09:24:50.416Z,63.63
2022-11-15T09:25:50.422Z,66.13
2022-11-15T09:26:50.462Z,64.11
2022-11-15T09:27:50.388Z,63.70
2022-11-15T09:28:50.373Z,63.87
2022-11-15T09:29:50.362Z,65.02
2022-11-15T09:30:50.358Z,65.22
2022-11-15T09:31:50.378Z,64.07
2022-11-15T09:32:50.369Z,64.28
2022-11-15T09:33:50.330Z,63.70
2022-11-15T09:34:50.464Z,63.98
2022-11-15T09:35:50.361Z,64.31
2022-11-15T09:36:50.313Z,63.87
2022-11-15T09:37:55.928Z,63.98
2022-11-15T09:38:52.298Z,63.87
2022-11-15T09:39:50.290Z,62.76
2022-11-15T09:40:50.264Z,63.60
2022-11-15T09:41:50.256Z,63.53
2022-11-15T09:42:50.272Z,63.73
2022-11-15T09:43:50.231Z,64.27
2022-11-15T09:44:50.229Z,64.98
2022-11-15T09:45:50.207Z,65.69
2022-11-15T09:46:50.265Z,65.59
2022-11-15T09:47:50.189Z,66.30
2022-11-15T09:48:50.382Z,66.50
2022-11-15T09:49:53.839Z,65.79
2022-11-15T09:50:51.165Z,65.69
2022-11-15T09:51:50.185Z,65.89
2022-11-15T09:52:50.254Z,66.40
2022-11-15T09:54:55.471Z,65.48
2022-11-15T09:55:51.132Z,66.09
2022-11-15T09:56:50.106Z,66.06
2022-11-15T09:57:50.220Z,66.40
2022-11-15T09:58:50.102Z,65.86
2022-11-15T09:59:50.108Z,66.91
2022-11-15T10:00:50.271Z,66.27
2022-11-15T10:01:50.163Z,65.36
2022-11-15T10:02:50.107Z,66.37
2022-11-15T10:03:50.056Z,66.47
2022-11-15T10:04:50.023Z,65.83
2022-11-15T10:05:50.047Z,65.22
2022-11-15T10:06:50.079Z,64.92
2022-11-15T10:07:50.004Z,65.62
2022-11-15T10:08:49.977Z,66.37
2022-11-15T10:09:49.976Z,66.13
2022-11-15T10:10:50.000Z,65.53
2022-11-15T10:11:49.960Z,66.41
2022-11-15T10:12:49.947Z,66.20
2022-11-15T10:13:49.933Z,66.17
2022-11-15T10:14:54.356Z,64.96
2022-11-15T10:15:50.954Z,65.16
2022-11-15T10:16:49.956Z,65.26
2022-11-15T10:17:49.896Z,63.95
2022-11-15T10:18:49.914Z,64.45
2022-11-15T10:19:49.876Z,65.56
2022-11-15T10:20:49.876Z,64.96
2022-11-15T10:21:49.885Z,63.81
2022-11-15T10:22:49.886Z,63.41
2022-11-15T10:23:49.834Z,63.92
2022-11-15T10:24:49.818Z,64.22
2022-11-15T10:25:49.818Z,63.31
2022-11-15T10:26:49.804Z,64.52
2022-11-15T10:27:49.850Z,63.81
2022-11-15T10:28:49.811Z,63.81
2022-11-15T10:29:49.788Z,63.84
2022-11-15T10:30:49.764Z,63.81
2022-11-15T10:31:49.782Z,64.12
2022-11-15T10:32:49.830Z,64.52
2022-11-15T10:33:49.764Z,64.22
2022-11-15T10:34:49.769Z,63.31
2022-11-15T10:35:49.787Z,63.41
2022-11-15T10:36:50.523Z,63.68
2022-11-15T10:37:50.696Z,63.10
2022-11-15T10:38:49.721Z,63.21
2022-11-15T10:39:49.782Z,63.28
2022-11-15T10:40:49.690Z,63.38
2022-11-15T10:41:49.718Z,62.37
2022-11-15T10:42:49.663Z,62.57
2022-11-15T10:43:49.660Z,63.78
2022-11-15T10:44:49.634Z,63.08
2022-11-15T10:45:49.611Z,63.78
2022-11-15T10:46:49.638Z,64.09
2022-11-15T10:47:49.627Z,63.99
2022-11-15T10:48:49.588Z,63.89
2022-11-15T10:49:49.658Z,63.78
2022-11-15T10:50:49.603Z,63.78
2022-11-15T10:51:49.569Z,63.96
2022-11-15T10:52:49.556Z,63.45
2022-11-15T10:53:49.542Z,63.35
2022-11-15T10:54:49.544Z,63.25
2022-11-15T10:55:49.516Z,63.05
2022-11-15T10:56:49.500Z,62.62
2022-11-15T10:57:49.542Z,63.02
2022-11-15T10:58:49.498Z,62.71
2022-11-15T10:59:49.487Z,62.82
2022-11-15T11:00:49.485Z,62.82
2022-11-15T11:01:49.470Z,62.18
2022-11-15T11:02:49.507Z,61.71
2022-11-15T11:03:49.443Z,62.64
2022-11-15T11:04:49.432Z,62.51
2022-11-15T11:05:49.433Z,62.64
2022-11-15T11:06:49.509Z,63.25
2022-11-15T11:07:49.427Z,62.74
2022-11-15T11:08:49.428Z,63.22
2022-11-15T11:09:49.381Z,62.24
2022-11-15T11:10:52.767Z,62.64
2022-11-15T11:11:50.408Z,63.73
2022-11-15T11:12:49.353Z,63.22
2022-11-15T11:13:49.364Z,62.62
2022-11-15T11:14:49.326Z,62.41
2022-11-15T11:15:49.323Z,63.29
2022-11-15T11:16:49.329Z,62.59
2022-11-15T11:17:49.296Z,63.09
2022-11-15T11:18:49.332Z,62.68
2022-11-15T11:19:49.284Z,62.88
2022-11-15T11:20:49.274Z,61.91
2022-11-15T11:21:49.354Z,63.02
2022-11-15T11:22:49.247Z,63.32
2022-11-15T11:23:49.298Z,62.92
2022-11-15T11:24:49.352Z,62.34
2022-11-15T11:25:49.248Z,62.85
2022-11-15T11:26:52.934Z,62.54
2022-11-15T11:27:50.207Z,63.25
2022-11-15T11:28:49.205Z,62.64
2022-11-15T11:29:50.190Z,62.64
2022-11-15T11:30:49.178Z,63.25
2022-11-15T11:31:49.183Z,63.35
2022-11-15T11:32:53.878Z,63.45
2022-11-15T11:33:51.165Z,63.35
2022-11-15T11:34:49.140Z,63.41
2022-11-15T11:35:49.181Z,63.71
2022-11-15T11:36:49.106Z,64.12
2022-11-15T11:37:49.111Z,64.83
2022-11-15T11:38:49.122Z,64.52
2022-11-15T11:39:49.088Z,64.52
2022-11-15T11:40:49.138Z,64.73
2022-11-15T11:41:49.070Z,65.26
2022-11-15T11:42:49.053Z,65.23
2022-11-15T11:43:49.044Z,65.77
2022-11-15T11:44:49.039Z,64.42
2022-11-15T11:45:49.372Z,65.33
2022-11-15T11:46:49.013Z,64.73
2022-11-15T11:47:49.010Z,63.61
2022-11-15T11:48:49.088Z,63.68
2022-11-15T11:49:48.979Z,65.20
2022-11-15T11:50:48.990Z,63.58
2022-11-15T11:51:48.970Z,63.55
2022-11-15T11:52:48.948Z,63.78
2022-11-15T11:53:48.973Z,63.41
2022-11-15T11:54:48.937Z,64.32
2022-11-15T11:55:48.917Z,63.41
2022-11-15T11:56:48.907Z,63.75
2022-11-15T11:57:48.911Z,64.25
2022-11-15T11:58:48.894Z,63.95
2022-11-15T11:59:48.900Z,64.86
2022-11-15T12:00:48.905Z,64.38
2022-11-15T12:01:48.960Z,65.19
2022-11-15T12:02:48.990Z,65.39
2022-11-15T12:03:48.846Z,65.06
2022-11-15T12:04:48.836Z,64.55
2022-11-15T12:05:48.846Z,64.96
2022-11-15T12:06:48.869Z,64.65
2022-11-15T12:07:48.830Z,64.35
2022-11-15T12:08:48.811Z,65.19
2022-11-15T12:09:48.782Z,65.09
2022-11-15T12:10:48.787Z,65.26
2022-11-15T12:11:48.793Z,65.50
2022-11-15T12:12:48.777Z,65.09
2022-11-15T12:13:48.759Z,64.58
2022-11-15T12:14:48.765Z,65.09
2022-11-15T12:15:48.755Z,65.19
2022-11-15T12:16:48.783Z,65.16
2022-11-15T12:17:48.706Z,64.69
2022-11-15T12:18:48.713Z,65.19
2022-11-15T12:19:48.695Z,64.99
2022-11-15T12:20:48.702Z,66.00
2022-11-15T12:21:48.669Z,66.07
2022-11-15T12:22:48.662Z,65.50
2022-11-15T12:23:48.698Z,66.00
2022-11-15T12:24:48.666Z,64.99
2022-11-15T12:25:48.652Z,65.36
2022-11-15T12:26:48.695Z,65.29
2022-11-15T12:27:48.619Z,64.79
2022-11-15T12:29:06.985Z,65.06
2022-11-15T12:29:50.626Z,65.77
2022-11-15T12:30:48.574Z,65.47
2022-11-15T12:31:48.580Z,65.16
2022-11-15T12:32:48.572Z,64.28
2022-11-15T12:33:48.570Z,65.39
2022-11-15T12:34:48.537Z,66.10
2022-11-15T12:35:48.543Z,65.19
2022-11-15T12:36:48.527Z,65.50
2022-11-15T12:37:48.505Z,65.80
2022-11-15T12:38:48.515Z,65.16
2022-11-15T12:39:48.501Z,64.86
2022-11-15T12:40:48.535Z,65.64
2022-11-15T12:41:48.476Z,65.03
2022-11-15T12:42:48.483Z,63.92
2022-11-15T12:43:48.468Z,64.52
2022-11-15T12:44:48.443Z,63.71
2022-11-15T12:45:48.464Z,64.42
2022-11-15T12:46:49.421Z,64.73
2022-11-15T12:47:48.421Z,64.12
2022-11-15T12:48:48.419Z,64.45
2022-11-15T12:49:48.422Z,64.76
2022-11-15T12:50:48.385Z,64.25
2022-11-15T12:51:48.398Z,64.55
2022-11-15T12:52:48.388Z,65.19
2022-11-15T12:53:48.362Z,64.65